createdAt,value
2023-02-23T00:01:31.990Z,97592.84
2023-02-23T00:04:07.239Z,97595.13
2023-02-23T00:06:40.562Z,97595.22
2023-02-23T00:09:23.093Z,97594.34
2023-02-23T00:11:58.583Z,97589.13
2023-02-23T00:14:32.409Z,97590.81
2023-02-23T00:17:05.652Z,97591.47
2023-02-23T00:19:41.007Z,97583.16
2023-02-23T00:22:14.202Z,97588.38
2023-02-23T00:24:48.240Z,97584.84
2023-02-23T00:27:21.984Z,97583.16
2023-02-23T00:29:55.268Z,97576.41
2023-02-23T00:32:28.746Z,97579.06
2023-02-23T00:35:03.509Z,97580.06
2023-02-23T00:37:37.718Z,97579.28
2023-02-23T00:40:14.766Z,97578.78
2023-02-23T00:42:52.228Z,97588.09
2023-02-23T00:45:25.538Z,97580.03
2023-02-23T00:47:59.011Z,97586.19
2023-02-23T00:50:34.867Z,97590.72
2023-02-23T00:53:09.413Z,97589.53
2023-02-23T00:55:44.452Z,97591.00
2023-02-23T00:58:17.653Z,97582.00
2023-02-23T01:00:50.872Z,97586.09
2023-02-23T01:03:24.280Z,97582.00
2023-02-23T01:06:05.339Z,97579.28
2023-02-23T01:08:42.636Z,97585.44
2023-02-23T01:11:19.131Z,97581.63
2023-02-23T01:13:56.838Z,97580.91
2023-02-23T01:16:33.137Z,97576.94
2023-02-23T01:19:06.863Z,97584.75
2023-02-23T01:21:43.838Z,97575.16
2023-02-23T01:24:17.123Z,97579.44
2023-02-23T01:26:50.437Z,97574.34
2023-02-23T01:29:23.797Z,97578.75
2023-02-23T01:31:56.986Z,97578.19
2023-02-23T01:34:30.162Z,97569.28
2023-02-23T01:37:05.005Z,97574.16
2023-02-23T01:39:38.217Z,97573.22
2023-02-23T01:42:14.731Z,97575.03
2023-02-23T01:45:24.855Z,97571.06
2023-02-23T01:48:03.876Z,97569.47
2023-02-23T01:50:50.396Z,97565.56
2023-02-23T01:53:26.859Z,97564.78
2023-02-23T01:56:11.280Z,97568.47
2023-02-23T01:58:48.894Z,97565.94
2023-02-23T02:01:22.694Z,97559.78
2023-02-23T02:03:59.056Z,97565.84
2023-02-23T02:06:34.124Z,97564.88
2023-02-23T02:09:17.013Z,97569.94
2023-02-23T02:11:54.275Z,97555.28
2023-02-23T02:14:32.013Z,97557.53
2023-02-23T02:17:23.553Z,97552.34
2023-02-23T02:21:04.858Z,97553.25
2023-02-23T02:24:52.372Z,97555.78
2023-02-23T02:27:52.732Z,97557.44
2023-02-23T02:30:47.039Z,97547.38
2023-02-23T02:34:26.496Z,97552.44
2023-02-23T02:37:19.449Z,97548.44
2023-02-23T02:40:16.327Z,97550.41
2023-02-23T02:43:09.244Z,97546.38
2023-02-23T02:45:50.164Z,97540.47
2023-02-23T02:48:34.690Z,97542.16
2023-02-23T02:51:18.481Z,97540.97
2023-02-23T02:54:06.853Z,97544.22
2023-02-23T02:56:44.400Z,97537.28
2023-02-23T02:59:38.092Z,97545.13
2023-02-23T03:02:36.243Z,97538.97
2023-02-23T03:05:32.953Z,97544.63
2023-02-23T03:08:36.158Z,97540.94
2023-02-23T03:11:32.054Z,97538.91
2023-02-23T03:14:36.174Z,97541.22
2023-02-23T03:17:46.365Z,97546.22
2023-02-23T03:20:45.643Z,97543.66
2023-02-23T03:23:42.394Z,97547.19
2023-02-23T03:26:42.684Z,97543.66
2023-02-23T03:29:40.640Z,97544.28
2023-02-23T03:32:40.192Z,97545.22
2023-02-23T03:35:40.330Z,97545.81
2023-02-23T03:38:36.135Z,97545.53
2023-02-23T03:41:30.146Z,97539.75
2023-02-23T03:44:28.296Z,97538.19
2023-02-23T03:47:20.555Z,97540.56
2023-02-23T03:50:13.753Z,97542.69
2023-02-23T03:53:11.444Z,97540.84
2023-02-23T03:56:06.738Z,97544.94
2023-02-23T03:59:01.867Z,97548.47
2023-02-23T04:01:55.340Z,97541.78
2023-02-23T04:04:47.727Z,97544.66
2023-02-23T04:07:38.887Z,97540.63
2023-02-23T04:10:30.997Z,97542.50
2023-02-23T04:13:15.289Z,97545.22
2023-02-23T04:15:54.404Z,97543.38
2023-02-23T04:18:31.782Z,97546.91
2023-02-23T04:21:06.720Z,97539.56
2023-02-23T04:23:41.710Z,97538.09
2023-02-23T04:26:14.985Z,97537.97
2023-02-23T04:28:48.250Z,97542.31
2023-02-23T04:31:25.233Z,97542.56
2023-02-23T04:34:00.177Z,97542.00
2023-02-23T04:36:33.310Z,97547.00
2023-02-23T04:39:06.547Z,97545.41
2023-02-23T04:41:39.782Z,97540.25
2023-02-23T04:44:13.294Z,97547.19
2023-02-23T04:46:46.670Z,97544.66
2023-02-23T04:49:21.189Z,97550.69
2023-02-23T04:51:54.520Z,97545.91
2023-02-23T04:54:29.435Z,97551.31
2023-02-23T04:57:02.546Z,97551.50
2023-02-23T04:59:35.804Z,97555.78
2023-02-23T05:02:09.429Z,97548.16
2023-02-23T05:04:44.759Z,97547.47
2023-02-23T05:07:18.055Z,97554.22
2023-02-23T05:09:51.166Z,97544.81
2023-02-23T05:12:24.240Z,97544.63
2023-02-23T05:14:57.812Z,97547.78
2023-02-23T05:17:31.274Z,97550.41
2023-02-23T05:20:07.193Z,97552.06
2023-02-23T05:22:40.514Z,97550.00
2023-02-23T05:25:13.791Z,97544.94
2023-02-23T05:27:46.978Z,97545.81
2023-02-23T05:30:20.253Z,97551.81
2023-02-23T05:32:53.498Z,97544.06
2023-02-23T05:35:28.196Z,97543.38
2023-02-23T05:38:01.316Z,97547.78
2023-02-23T05:40:34.619Z,97546.09
2023-02-23T05:43:08.026Z,97546.03
2023-02-23T05:45:42.392Z,97552.19
2023-02-23T05:48:15.627Z,97546.22
2023-02-23T05:50:50.297Z,97542.88
2023-02-23T05:53:23.582Z,97547.09
2023-02-23T05:55:56.733Z,97549.91
2023-02-23T05:58:30.524Z,97547.97
2023-02-23T06:01:03.638Z,97551.31
2023-02-23T06:03:37.250Z,97546.97
2023-02-23T06:06:12.486Z,97553.84
2023-02-23T06:08:46.388Z,97548.84
2023-02-23T06:11:22.473Z,97550.72
2023-02-23T06:13:55.938Z,97555.78
2023-02-23T06:16:29.701Z,97563.81
2023-02-23T06:19:03.086Z,97565.38
2023-02-23T06:21:37.875Z,97566.16
2023-02-23T06:24:12.228Z,97562.63
2023-02-23T06:26:45.527Z,97570.25
2023-02-23T06:29:18.973Z,97571.34
2023-02-23T06:31:52.378Z,97563.81
2023-02-23T06:34:25.725Z,97568.13
2023-02-23T06:37:00.356Z,97575.53
2023-02-23T06:39:33.929Z,97573.00
2023-02-23T06:42:07.310Z,97572.22
2023-02-23T06:44:40.579Z,97575.75
2023-02-23T06:47:13.862Z,97576.72
2023-02-23T06:49:47.789Z,97582.09
2023-02-23T06:52:23.140Z,97588.19
2023-02-23T06:54:56.759Z,97593.16
2023-02-23T06:57:30.034Z,97581.22
2023-02-23T07:00:04.130Z,97587.38
2023-02-23T07:02:37.659Z,97588.19
2023-02-23T07:05:11.612Z,97585.81
2023-02-23T07:07:47.456Z,97588.63
2023-02-23T07:10:20.923Z,97595.59
2023-02-23T07:12:55.592Z,97600.97
2023-02-23T07:15:28.932Z,97600.47
2023-02-23T07:18:02.054Z,97593.81
2023-02-23T07:20:36.077Z,97600.94
2023-02-23T07:23:10.778Z,97603.00
2023-02-23T07:25:43.909Z,97609.84
2023-02-23T07:28:17.056Z,97610.03
2023-02-23T07:30:50.904Z,97612.66
2023-02-23T07:33:24.485Z,97607.75
2023-02-23T07:35:57.792Z,97605.41
2023-02-23T07:38:32.619Z,97604.63
2023-02-23T07:41:06.485Z,97609.72
2023-02-23T07:43:39.712Z,97612.47
2023-02-23T07:46:15.634Z,97615.19
2023-02-23T07:48:48.982Z,97612.84
2023-02-23T07:51:22.316Z,97613.63
2023-02-23T07:53:56.996Z,97610.50
2023-02-23T07:56:30.167Z,97609.22
2023-02-23T07:59:03.448Z,97617.75
2023-02-23T08:01:37.001Z,97617.06
2023-02-23T08:04:10.370Z,97609.88
2023-02-23T08:06:43.571Z,97612.88
2023-02-23T08:09:18.139Z,97610.59
2023-02-23T08:11:51.303Z,97607.66
2023-02-23T08:14:25.344Z,97609.00
2023-02-23T08:16:58.695Z,97609.97
2023-02-23T08:19:32.203Z,97620.06
2023-02-23T08:22:07.725Z,97616.72
2023-02-23T08:24:43.412Z,97618.91
2023-02-23T08:27:16.515Z,97620.00
2023-02-23T08:29:52.549Z,97622.63
2023-02-23T08:32:25.772Z,97627.03
2023-02-23T08:35:01.272Z,97624.94
2023-02-23T08:37:34.837Z,97620.69
2023-02-23T08:40:12.303Z,97619.72
2023-02-23T08:42:45.801Z,97618.75
2023-02-23T08:45:20.183Z,97621.56
2023-02-23T08:47:55.787Z,97627.72
2023-02-23T08:50:29.133Z,97624.19
2023-02-23T08:53:02.497Z,97628.78
2023-02-23T08:55:39.444Z,97621.41
2023-02-23T08:58:12.992Z,97631.63
2023-02-23T09:00:46.511Z,97624.16
2023-02-23T09:03:20.123Z,97635.31
2023-02-23T09:05:53.737Z,97628.72
2023-02-23T09:08:27.086Z,97634.09
2023-02-23T09:11:01.937Z,97630.94
2023-02-23T09:13:36.216Z,97631.28
2023-02-23T09:16:09.889Z,97628.72
2023-02-23T09:18:43.790Z,97641.75
2023-02-23T09:21:22.367Z,97636.94
2023-02-23T09:23:56.330Z,97636.94
2023-02-23T09:26:32.617Z,97636.47
2023-02-23T09:29:05.914Z,97632.53
2023-02-23T09:31:43.754Z,97636.41
2023-02-23T09:34:17.241Z,97640.06
2023-02-23T09:36:51.460Z,97640.63
2023-02-23T09:39:37.324Z,97634.06
2023-02-23T09:42:35.634Z,97633.38
2023-02-23T09:45:20.487Z,97641.06
2023-02-23T09:48:08.505Z,97634.19
2023-02-23T09:50:45.691Z,97633.34
2023-02-23T09:53:41.074Z,97636.16
2023-02-23T09:56:22.569Z,97637.84
2023-02-23T09:58:57.470Z,97634.16
2023-02-23T10:01:57.483Z,97638.31
2023-02-23T10:04:33.680Z,97631.91
2023-02-23T10:07:14.747Z,97632.16
2023-02-23T10:10:05.149Z,97638.84
2023-02-23T10:12:50.911Z,97640.69
2023-02-23T10:15:35.685Z,97633.63
2023-02-23T10:18:20.598Z,97633.31
2023-02-23T10:21:01.121Z,97641.13
2023-02-23T10:23:41.003Z,97635.50
2023-02-23T10:26:20.230Z,97630.34
2023-02-23T10:28:55.987Z,97636.22
2023-02-23T10:31:39.541Z,97633.31
2023-02-23T10:34:17.887Z,97632.00
2023-02-23T10:36:59.800Z,97631.66
2023-02-23T10:39:34.744Z,97635.38
2023-02-23T10:42:15.604Z,97632.41
2023-02-23T10:44:50.110Z,97632.88
2023-02-23T10:47:28.610Z,97627.59
2023-02-23T10:50:03.401Z,97627.88
2023-02-23T10:52:42.976Z,97628.28
2023-02-23T10:55:27.725Z,97629.66
2023-02-23T10:58:16.922Z,97621.09
2023-02-23T11:00:55.584Z,97622.44
2023-02-23T11:03:35.535Z,97619.59
2023-02-23T11:06:28.997Z,97619.94
2023-02-23T11:09:41.300Z,97619.34
2023-02-23T11:12:23.139Z,97621.31
2023-02-23T11:14:58.832Z,97617.81
2023-02-23T11:17:35.751Z,97612.56
2023-02-23T11:20:27.616Z,97617.63
2023-02-23T11:23:09.590Z,97613.28
2023-02-23T11:25:49.420Z,97608.44
2023-02-23T11:28:27.817Z,97603.31
2023-02-23T11:31:06.017Z,97605.13
2023-02-23T11:33:41.489Z,97606.81
2023-02-23T11:36:27.792Z,97596.91
2023-02-23T11:39:23.640Z,97600.97
2023-02-23T11:42:17.524Z,97597.59
2023-02-23T11:45:04.998Z,97585.13
2023-02-23T11:47:42.354Z,97587.50
2023-02-23T11:50:29.001Z,97588.63
2023-02-23T11:53:06.875Z,97583.91
2023-02-23T11:55:40.713Z,97583.50
2023-02-23T11:58:27.013Z,97582.13
2023-02-23T12:01:03.491Z,97574.19
2023-02-23T12:03:37.769Z,97577.94
2023-02-23T12:06:12.257Z,97568.56
2023-02-23T12:08:52.566Z,97567.53
2023-02-23T12:11:30.759Z,97571.94
2023-02-23T12:14:09.498Z,97562.38
2023-02-23T12:16:46.555Z,97561.22
2023-02-23T12:19:27.211Z,97565.00
2023-02-23T12:22:06.657Z,97559.34
2023-02-23T12:24:46.687Z,97558.66
2023-02-23T12:27:24.363Z,97554.72
2023-02-23T12:30:08.949Z,97553.13
2023-02-23T12:32:51.357Z,97551.63
2023-02-23T12:35:31.629Z,97556.19
2023-02-23T12:38:11.754Z,97549.16
2023-02-23T12:40:46.926Z,97552.03
2023-02-23T12:43:28.820Z,97544.25
2023-02-23T12:46:11.407Z,97544.25
2023-02-23T12:48:56.805Z,97542.38
2023-02-23T12:51:35.965Z,97542.38
2023-02-23T12:54:13.249Z,97541.63
2023-02-23T12:56:57.493Z,97529.19
2023-02-23T13:04:15.808Z,97525.19
2023-02-23T13:06:58.720Z,97518.53
2023-02-23T13:09:52.552Z,97526.47
2023-02-23T13:12:39.320Z,97519.41
2023-02-23T13:19:20.740Z,97523.09
2023-02-23T13:24:51.167Z,97522.44
2023-02-23T13:34:36.931Z,97523.31
2023-02-23T13:37:13.611Z,97515.47
2023-02-23T13:40:02.660Z,97517.22
2023-02-23T13:42:52.525Z,97513.94
2023-02-23T13:45:49.170Z,97520.25
2023-02-23T13:48:37.984Z,97507.88
2023-02-23T13:51:30.495Z,97506.88
2023-02-23T13:54:08.416Z,97502.44
2023-02-23T13:56:45.993Z,97504.47
2023-02-23T13:59:21.673Z,97497.38
2023-02-23T14:01:56.478Z,97497.56
2023-02-23T14:04:36.259Z,97502.00
2023-02-23T14:07:19.820Z,97504.34
2023-02-23T14:09:57.054Z,97502.50
2023-02-23T14:12:36.140Z,97497.47
2023-02-23T14:15:43.492Z,97493.75
2023-02-23T14:18:34.270Z,97487.56
2023-02-23T14:21:24.533Z,97492.69
2023-02-23T14:24:17.444Z,97492.00
2023-02-23T14:27:38.826Z,97487.38
2023-02-23T14:30:25.675Z,97489.56
2023-02-23T14:33:21.190Z,97481.63
2023-02-23T14:35:56.073Z,97487.38
2023-02-23T14:38:46.916Z,97487.94
2023-02-23T14:41:26.096Z,97487.03
2023-02-23T14:44:03.953Z,97490.34
2023-02-23T14:46:38.420Z,97491.28
2023-02-23T14:49:20.749Z,97486.88
2023-02-23T14:51:55.956Z,97490.31
2023-02-23T14:54:34.004Z,97474.94
2023-02-23T14:57:22.298Z,97485.06
2023-02-23T14:59:59.482Z,97483.38
2023-02-23T15:02:33.526Z,97484.09
2023-02-23T15:05:17.053Z,97484.97
2023-02-23T15:07:51.947Z,97478.75
2023-02-23T15:10:32.512Z,97485.38
2023-02-23T15:13:29.070Z,97481.88
2023-02-23T15:16:07.731Z,97480.91
2023-02-23T15:19:32.140Z,97493.56
2023-02-23T15:22:06.817Z,97495.38
2023-02-23T15:24:48.368Z,97496.84
2023-02-23T15:27:26.932Z,97499.22
2023-02-23T15:30:20.060Z,97501.69
2023-02-23T15:33:02.664Z,97498.03
2023-02-23T15:35:44.436Z,97500.47
2023-02-23T15:38:42.407Z,97503.03
2023-02-23T15:41:26.325Z,97502.22
2023-02-23T15:44:07.136Z,97503.03
2023-02-23T15:46:42.824Z,97508.97
2023-02-23T15:49:17.437Z,97507.34
2023-02-23T15:51:53.258Z,97512.38
2023-02-23T15:54:31.971Z,97506.75
2023-02-23T15:57:14.106Z,97508.19
2023-02-23T15:59:49.909Z,97502.75
2023-02-23T16:02:26.603Z,97506.06
2023-02-23T16:05:16.026Z,97504.97
2023-02-23T16:07:49.112Z,97504.97
2023-02-23T16:10:25.283Z,97507.56
2023-02-23T16:12:58.443Z,97504.88
2023-02-23T16:15:36.805Z,97514.09
2023-02-23T16:18:17.254Z,97520.75
2023-02-23T16:20:56.021Z,97519.75
2023-02-23T16:23:34.638Z,97517.88
2023-02-23T16:26:13.715Z,97518.38
2023-02-23T16:28:47.976Z,97518.28
2023-02-23T16:31:28.240Z,97519.75
2023-02-23T16:34:04.917Z,97516.13
2023-02-23T16:36:40.232Z,97514.09
2023-02-23T16:39:17.505Z,97510.47
2023-02-23T16:41:51.177Z,97516.31
2023-02-23T16:44:28.477Z,97513.44
2023-02-23T16:47:37.314Z,97510.63
2023-02-23T16:50:21.143Z,97515.59
2023-02-23T16:52:54.769Z,97515.31
2023-02-23T16:55:30.104Z,97512.56
2023-02-23T16:58:05.019Z,97514.06
2023-02-23T17:00:38.559Z,97519.06
2023-02-23T17:03:20.316Z,97520.53
2023-02-23T17:05:55.480Z,97516.84
2023-02-23T17:08:28.603Z,97519.13
2023-02-23T17:11:03.245Z,97519.88
2023-02-23T17:13:37.148Z,97521.34
2023-02-23T17:16:14.273Z,97519.47
2023-02-23T17:18:47.484Z,97518.41
2023-02-23T17:21:23.889Z,97526.59
2023-02-23T17:24:03.721Z,97528.97
2023-02-23T17:26:37.002Z,97532.78
2023-02-23T17:29:10.117Z,97519.78
2023-02-23T17:31:43.399Z,97524.91
2023-02-23T17:34:16.631Z,97527.34
2023-02-23T17:36:51.001Z,97528.81
2023-02-23T17:39:28.006Z,97535.41
2023-02-23T17:42:01.064Z,97534.25
2023-02-23T17:44:34.137Z,97534.13
2023-02-23T17:47:07.398Z,97542.44
2023-02-23T17:49:40.731Z,97542.13
2023-02-23T17:52:15.126Z,97543.53
2023-02-23T17:54:48.714Z,97546.69
2023-02-23T17:57:24.139Z,97549.88
2023-02-23T17:59:58.355Z,97547.13
2023-02-23T18:02:31.748Z,97542.72
2023-02-23T18:05:05.252Z,97553.69
2023-02-23T18:07:40.497Z,97547.56
2023-02-23T18:10:14.779Z,97556.00
2023-02-23T18:12:47.869Z,97550.75
2023-02-23T18:15:21.581Z,97555.66
2023-02-23T18:17:57.430Z,97558.22
2023-02-23T18:20:30.619Z,97560.69
2023-02-23T18:23:04.970Z,97549.44
2023-02-23T18:25:38.021Z,97558.81
2023-02-23T18:28:12.711Z,97550.97
2023-02-23T18:30:46.904Z,97559.44
2023-02-23T18:33:20.013Z,97556.88
2023-02-23T18:35:53.096Z,97556.72
2023-02-23T18:38:27.505Z,97553.25
2023-02-23T18:41:00.434Z,97560.97
2023-02-23T18:43:33.436Z,97556.38
2023-02-23T18:46:07.770Z,97552.75
2023-02-23T18:48:42.064Z,97548.59
2023-02-23T18:51:15.041Z,97551.16
2023-02-23T18:53:50.534Z,97548.59
2023-02-23T18:56:28.085Z,97551.00
2023-02-23T18:59:02.390Z,97555.97
2023-02-23T19:01:37.528Z,97550.00
2023-02-23T19:04:11.119Z,97550.88
2023-02-23T19:06:46.042Z,97549.13
2023-02-23T19:09:21.343Z,97546.38
2023-02-23T19:11:54.577Z,97543.78
2023-02-23T19:14:48.279Z,97542.03
2023-02-23T19:17:22.175Z,97552.16
2023-02-23T19:19:56.076Z,97545.22
2023-02-23T19:22:30.505Z,97546.03
2023-02-23T19:25:05.682Z,97542.50
2023-02-23T19:27:39.360Z,97541.47
2023-02-23T19:30:14.897Z,97544.03
2023-02-23T19:32:48.141Z,97544.66
2023-02-23T19:35:21.303Z,97553.16
2023-02-23T19:37:55.711Z,97547.06
2023-02-23T19:40:30.828Z,97553.81
2023-02-23T19:43:04.326Z,97549.47
2023-02-23T19:45:37.423Z,97552.03
2023-02-23T19:48:10.409Z,97561.38
2023-02-23T19:50:47.967Z,97550.28
2023-02-23T19:53:21.038Z,97550.19
2023-02-23T19:56:01.854Z,97548.44
2023-02-23T19:58:35.728Z,97545.78
2023-02-23T20:01:11.904Z,97545.78
2023-02-23T20:03:47.398Z,97547.41
2023-02-23T20:06:20.410Z,97544.78
2023-02-23T20:08:55.060Z,97542.22
2023-02-23T20:11:31.548Z,97547.25
2023-02-23T20:14:05.748Z,97545.59
2023-02-23T20:16:38.999Z,97545.34
2023-02-23T20:19:12.011Z,97547.69
2023-02-23T20:21:45.801Z,97545.03
2023-02-23T20:24:19.750Z,97548.38
2023-02-23T20:26:58.139Z,97545.84
2023-02-23T20:29:31.321Z,97556.13
2023-02-23T20:32:10.067Z,97546.63
2023-02-23T20:34:45.409Z,97542.31
2023-02-23T20:37:18.433Z,97530.91
2023-02-23T20:39:51.372Z,97536.25
2023-02-23T20:42:28.225Z,97542.22
2023-02-23T20:45:01.200Z,97540.84
2023-02-23T20:47:34.236Z,97543.84
2023-02-23T20:50:10.712Z,97543.53
2023-02-23T20:52:45.849Z,97539.84
2023-02-23T20:55:19.752Z,97541.25
2023-02-23T20:57:55.370Z,97544.47
2023-02-23T21:00:29.472Z,97548.53
2023-02-23T21:03:05.101Z,97545.88
2023-02-23T21:05:41.757Z,97546.69
2023-02-23T21:08:14.860Z,97538.69
2023-02-23T21:10:50.178Z,97545.38
2023-02-23T21:13:26.495Z,97540.28
2023-02-23T21:16:01.281Z,97536.91
2023-02-23T21:18:34.618Z,97532.63
2023-02-23T21:21:09.669Z,97527.41
2023-02-23T21:23:44.802Z,97526.53
2023-02-23T21:26:21.526Z,97531.31
2023-02-23T21:28:55.946Z,97531.16
2023-02-23T21:31:29.125Z,97531.16
2023-02-23T21:34:05.460Z,97536.25
2023-02-23T21:36:38.987Z,97528.44
2023-02-23T21:39:12.218Z,97534.34
2023-02-23T21:41:45.206Z,97525.00
2023-02-23T21:44:19.609Z,97525.72
2023-02-23T21:46:52.698Z,97519.34
2023-02-23T21:49:25.737Z,97522.19
2023-02-23T21:51:58.828Z,97517.63
2023-02-23T21:54:36.516Z,97515.16
2023-02-23T21:57:11.013Z,97520.44
2023-02-23T21:59:45.390Z,97511.75
2023-02-23T22:02:19.384Z,97510.84
2023-02-23T22:04:52.682Z,97510.06
2023-02-23T22:07:29.301Z,97512.53
2023-02-23T22:10:02.352Z,97518.50
2023-02-23T22:12:35.398Z,97516.91
2023-02-23T22:15:11.044Z,97515.94
2023-02-23T22:17:44.677Z,97525.38
2023-02-23T22:20:20.068Z,97515.94
2023-02-23T22:22:53.161Z,97524.56
2023-02-23T22:25:26.611Z,97520.28
2023-02-23T22:27:59.636Z,97522.03
2023-02-23T22:30:34.677Z,97519.47
2023-02-23T22:33:07.749Z,97524.66
2023-02-23T22:35:41.142Z,97516.31
2023-02-23T22:38:14.747Z,97516.91
2023-02-23T22:40:48.413Z,97516.03
2023-02-23T22:43:22.139Z,97510.69
2023-02-23T22:45:58.819Z,97515.59
2023-02-23T22:48:32.477Z,97518.00
2023-02-23T22:51:08.033Z,97518.78
2023-02-23T22:53:41.996Z,97515.59
2023-02-23T22:56:16.693Z,97507.00
2023-02-23T22:58:53.765Z,97501.97
2023-02-23T23:01:30.742Z,97507.97
2023-02-23T23:04:10.077Z,97503.81
2023-02-23T23:06:44.163Z,97503.03
2023-02-23T23:09:18.455Z,97495.38
2023-02-23T23:11:51.797Z,97502.09
2023-02-23T23:14:25.449Z,97496.88
2023-02-23T23:17:00.153Z,97498.47
2023-02-23T23:19:38.880Z,97495.84
2023-02-23T23:22:13.987Z,97494.09
2023-02-23T23:24:48.959Z,97492.25
2023-02-23T23:27:22.069Z,97482.81
2023-02-23T23:29:55.434Z,97487.91
2023-02-23T23:32:30.203Z,97486.25
2023-02-23T23:35:04.073Z,97479.50
2023-02-23T23:37:39.697Z,97476.84
2023-02-23T23:40:17.252Z,97471.75
2023-02-23T23:42:50.236Z,97475.88
2023-02-23T23:45:25.791Z,97468.16
2023-02-23T23:48:00.143Z,97465.59
2023-02-23T23:50:33.156Z,97465.59
2023-02-23T23:53:06.181Z,97461.38
2023-02-23T23:55:39.223Z,97454.53
2023-02-23T23:58:13.739Z,97450.31
